Time;durP1;ratioP1;P1;durP2;ratioP2;P2;SDS_P1;SDS_P2;PMS_P1;PMS_P2;Temp;Humidity;BMP_temperature;BMP_pressure;BME280_temperature;BME280_humidity;BME280_pressure;Samples;Min_cycle;Max_cycle;Signal;HPM_P1;HPM_P2
2021/10/09 00:01:59;;;;;;;5.03;1.90;;;;;;;;;;4934474;29;20036;-61
2021/10/09 00:04:25;;;;;;;6.13;2.28;;;;;;;;;;4934625;29;20028;-64
2021/10/09 00:06:52;;;;;;;7.13;2.33;;;;;;;;;;4934248;29;20103;-64
2021/10/09 00:09:18;;;;;;;7.18;2.42;;;;;;;;;;4934141;29;20027;-63
2021/10/09 00:11:44;;;;;;;3.40;1.65;;;;;;;;;;4934399;29;20448;-62
2021/10/09 00:14:11;;;;;;;7.20;2.25;;;;;;;;;;4934041;29;20396;-62
2021/10/09 00:16:38;;;;;;;7.45;2.40;;;;;;;;;;4934187;29;20032;-63
2021/10/09 00:19:04;;;;;;;7.18;2.90;;;;;;;;;;4933285;29;20346;-62
2021/10/09 00:21:31;;;;;;;5.97;2.20;;;;;;;;;;4933882;29;20535;-62
2021/10/09 00:23:59;;;;;;;4.97;2.28;;;;;;;;;;4933888;29;20028;-63
2021/10/09 00:26:25;;;;;;;6.82;2.47;;;;;;;;;;4933735;29;20051;-64
2021/10/09 00:28:52;;;;;;;4.47;1.95;;;;;;;;;;4934152;29;20027;-63
2021/10/09 00:31:18;;;;;;;9.20;2.42;;;;;;;;;;4934239;29;20123;-63
2021/10/09 00:33:44;;;;;;;7.38;2.50;;;;;;;;;;4934136;29;20038;-63
2021/10/09 00:36:10;;;;;;;6.45;2.33;;;;;;;;;;4934330;29;20078;-63
2021/10/09 00:38:36;;;;;;;6.13;2.13;;;;;;;;;;4933987;29;20058;-63
2021/10/09 00:41:02;;;;;;;5.00;2.10;;;;;;;;;;4933956;29;20156;-62
2021/10/09 00:43:28;;;;;;;8.50;3.10;;;;;;;;;;4934325;29;20460;-64
2021/10/09 00:45:58;;;;;;;5.70;2.40;;;;;;;;;;4933910;29;20047;-62
2021/10/09 00:48:24;;;;;;;6.45;2.35;;;;;;;;;;4934031;29;20380;-62
2021/10/09 00:50:51;;;;;;;4.97;2.47;;;;;;;;;;4934043;29;20436;-61
2021/10/09 00:53:19;;;;;;;5.80;2.47;;;;;;;;;;4933983;29;20448;-61
2021/10/09 00:55:46;;;;;;;5.15;2.45;;;;;;;;;;4933867;29;20074;-62
2021/10/09 00:58:14;;;;;;;6.22;2.35;;;;;;;;;;4933902;29;20028;-62
2021/10/09 01:00:42;;;;;;;6.80;2.50;;;;;;;;;;4934021;29;20063;-62
2021/10/09 01:03:09;;;;;;;5.88;2.55;;;;;;;;;;4933881;29;20032;-62
2021/10/09 01:05:36;;;;;;;4.95;2.40;;;;;;;;;;4933815;29;20028;-62
2021/10/09 01:08:02;;;;;;;5.35;2.67;;;;;;;;;;4933753;29;20468;-62
2021/10/09 01:10:29;;;;;;;5.20;2.40;;;;;;;;;;4933771;29;20032;-63
2021/10/09 01:12:55;;;;;;;5.80;2.28;;;;;;;;;;4933655;29;20031;-64
2021/10/09 01:15:29;;;;;;;8.15;2.63;;;;;;;;;;4932546;29;20474;-63
2021/10/09 01:17:55;;;;;;;6.28;2.28;;;;;;;;;;4933718;29;20039;-62
2021/10/09 01:20:21;;;;;;;7.90;2.22;;;;;;;;;;4933860;29;20042;-63
2021/10/09 01:22:47;;;;;;;9.48;2.67;;;;;;;;;;4933885;29;20028;-63
2021/10/09 01:25:14;;;;;;;5.80;2.40;;;;;;;;;;4933086;29;20040;-62
2021/10/09 01:27:40;;;;;;;6.82;2.40;;;;;;;;;;4936359;29;20039;-62
2021/10/09 01:30:08;;;;;;;7.88;2.63;;;;;;;;;;4937437;29;20083;-61
2021/10/09 01:32:34;;;;;;;4.50;2.28;;;;;;;;;;4937014;29;20040;-64
2021/10/09 01:35:04;;;;;;;6.50;2.20;;;;;;;;;;4937310;29;20023;-63
2021/10/09 01:37:37;;;;;;;6.70;2.50;;;;;;;;;;4937169;29;20032;-62
2021/10/09 01:40:03;;;;;;;8.05;2.50;;;;;;;;;;4937108;29;20023;-62
2021/10/09 01:42:29;;;;;;;6.90;2.33;;;;;;;;;;4937116;29;20035;-62
2021/10/09 01:44:55;;;;;;;6.13;2.08;;;;;;;;;;4937152;29;20479;-62
2021/10/09 01:47:22;;;;;;;6.50;2.50;;;;;;;;;;4936808;29;20027;-62
2021/10/09 01:49:48;;;;;;;6.05;2.20;;;;;;;;;;4936814;29;20024;-62
2021/10/09 01:52:14;;;;;;;3.95;2.40;;;;;;;;;;4936830;29;20043;-61
2021/10/09 01:54:40;;;;;;;6.25;2.50;;;;;;;;;;4936529;29;20023;-61
2021/10/09 01:57:06;;;;;;;6.28;2.15;;;;;;;;;;4937020;29;20087;-61
2021/10/09 01:59:32;;;;;;;5.25;2.28;;;;;;;;;;4936684;29;20031;-63
2021/10/09 02:01:58;;;;;;;6.13;2.00;;;;;;;;;;4937693;29;20098;-64
2021/10/09 02:04:25;;;;;;;5.03;2.38;;;;;;;;;;4938337;29;20059;-63
2021/10/09 02:06:51;;;;;;;7.10;2.38;;;;;;;;;;4936945;29;20031;-62
2021/10/09 02:09:18;;;;;;;7.43;2.08;;;;;;;;;;4936726;29;20531;-62
2021/10/09 02:11:47;;;;;;;5.38;2.20;;;;;;;;;;4936637;29;20090;-62
2021/10/09 02:27:31;;;;;;;6.03;3.22;;;;;;;;;;4936489;29;20058;-62
2021/10/09 02:29:57;;;;;;;4.60;2.20;;;;;;;;;;4936220;29;20099;-62
2021/10/09 02:32:23;;;;;;;6.05;2.40;;;;;;;;;;4936157;29;20035;-62
2021/10/09 02:34:49;;;;;;;6.35;2.22;;;;;;;;;;4936272;29;20024;-62
2021/10/09 02:37:15;;;;;;;5.25;2.00;;;;;;;;;;4936198;29;20028;-63
2021/10/09 02:39:41;;;;;;;7.53;2.30;;;;;;;;;;4935725;29;20027;-63
2021/10/09 02:42:07;;;;;;;6.93;2.80;;;;;;;;;;4935999;29;20484;-63
2021/10/09 02:44:34;;;;;;;6.45;2.38;;;;;;;;;;4935885;29;20042;-63
2021/10/09 02:47:00;;;;;;;6.97;3.28;;;;;;;;;;4935839;29;20032;-63
2021/10/09 02:49:26;;;;;;;3.88;2.00;;;;;;;;;;4936007;29;20177;-62
2021/10/09 02:51:52;;;;;;;6.30;2.67;;;;;;;;;;4935887;29;20024;-63
2021/10/09 02:54:18;;;;;;;3.78;2.20;;;;;;;;;;4935566;29;20547;-63
2021/10/09 02:56:44;;;;;;;4.25;2.17;;;;;;;;;;4935898;29;20451;-62
2021/10/09 02:59:11;;;;;;;8.13;2.28;;;;;;;;;;4935698;29;20487;-62
2021/10/09 03:01:38;;;;;;;4.68;2.10;;;;;;;;;;4935514;29;20123;-63
2021/10/09 03:04:04;;;;;;;5.18;2.50;;;;;;;;;;4935579;29;20031;-62
2021/10/09 03:06:30;;;;;;;6.25;1.85;;;;;;;;;;4935672;29;20090;-63
2021/10/09 03:08:56;;;;;;;4.57;2.30;;;;;;;;;;4935191;29;20441;-62
2021/10/09 03:11:22;;;;;;;8.25;2.40;;;;;;;;;;4935405;29;20477;-62
2021/10/09 03:13:48;;;;;;;6.97;2.38;;;;;;;;;;4935285;29;20078;-62
2021/10/09 03:16:14;;;;;;;5.65;2.28;;;;;;;;;;4935213;29;20036;-62
2021/10/09 03:18:40;;;;;;;4.90;2.42;;;;;;;;;;4935269;29;20035;-62
2021/10/09 03:21:06;;;;;;;4.55;2.58;;;;;;;;;;4935145;29;20131;-62
2021/10/09 03:23:32;;;;;;;5.18;2.08;;;;;;;;;;4933820;29;20504;-63
2021/10/09 03:25:58;;;;;;;6.03;2.17;;;;;;;;;;4934750;29;20043;-61
2021/10/09 03:28:24;;;;;;;7.22;2.42;;;;;;;;;;4935044;29;20055;-62
2021/10/09 03:30:51;;;;;;;7.40;3.00;;;;;;;;;;4935008;29;20032;-62
2021/10/09 03:33:17;;;;;;;4.75;2.53;;;;;;;;;;4935045;29;20511;-61
2021/10/09 03:35:43;;;;;;;5.90;2.47;;;;;;;;;;4935091;29;20059;-61
2021/10/09 03:38:09;;;;;;;8.18;2.70;;;;;;;;;;4935007;29;20049;-62
2021/10/09 03:40:36;;;;;;;6.57;2.90;;;;;;;;;;4934837;29;20165;-61
2021/10/09 03:43:12;;;;;;;5.63;2.50;;;;;;;;;;4934869;29;20035;-61
2021/10/09 03:45:53;;;;;;;6.32;2.60;;;;;;;;;;4934856;29;20037;-62
2021/10/09 03:53:48;;;;;;;8.15;2.78;;;;;;;;;;4934705;29;20043;-63
2021/10/09 03:56:14;;;;;;;4.60;2.47;;;;;;;;;;4934575;29;20030;-63
2021/10/09 03:58:40;;;;;;;8.10;3.08;;;;;;;;;;4934715;29;20039;-63
2021/10/09 04:01:06;;;;;;;7.47;3.28;;;;;;;;;;4934516;29;20068;-63
2021/10/09 04:03:32;;;;;;;4.40;2.30;;;;;;;;;;4934662;29;20023;-63
2021/10/09 04:05:59;;;;;;;10.32;2.78;;;;;;;;;;4934640;29;20031;-62
2021/10/09 04:08:26;;;;;;;4.50;2.50;;;;;;;;;;4934467;29;20023;-62
2021/10/09 04:10:52;;;;;;;6.18;2.67;;;;;;;;;;4934403;29;20471;-62
2021/10/09 04:13:18;;;;;;;5.88;2.70;;;;;;;;;;4934586;29;20082;-62
2021/10/09 04:15:44;;;;;;;9.25;3.10;;;;;;;;;;4934350;29;20464;-62
2021/10/09 04:18:10;;;;;;;8.93;2.60;;;;;;;;;;4934324;29;20399;-62
2021/10/09 04:20:37;;;;;;;6.05;3.25;;;;;;;;;;4934303;29;20027;-60
2021/10/09 04:23:04;;;;;;;5.70;2.63;;;;;;;;;;4934418;29;20106;-63
2021/10/09 04:25:30;;;;;;;8.52;3.17;;;;;;;;;;4933715;29;20051;-61
2021/10/09 04:27:56;;;;;;;5.07;2.67;;;;;;;;;;4934220;29;20086;-62
2021/10/09 04:30:22;;;;;;;4.25;2.80;;;;;;;;;;4934169;29;20032;-61
2021/10/09 04:32:48;;;;;;;9.23;3.35;;;;;;;;;;4934288;29;20032;-61
2021/10/09 04:35:16;;;;;;;6.75;3.13;;;;;;;;;;4934320;29;20038;-61
2021/10/09 04:37:42;;;;;;;5.57;2.60;;;;;;;;;;4934080;29;20388;-63
2021/10/09 04:40:08;;;;;;;5.28;2.90;;;;;;;;;;4933880;29;20030;-63
2021/10/09 04:42:34;;;;;;;5.45;2.95;;;;;;;;;;4934233;29;20039;-62
2021/10/09 04:45:01;;;;;;;4.80;2.83;;;;;;;;;;4934067;29;20023;-62
2021/10/09 04:47:27;;;;;;;5.38;2.80;;;;;;;;;;4933120;29;20032;-61
2021/10/09 04:49:53;;;;;;;5.53;2.72;;;;;;;;;;4932632;29;20031;-63
2021/10/09 04:52:19;;;;;;;4.25;2.60;;;;;;;;;;4933786;29;20064;-63
2021/10/09 04:54:45;;;;;;;4.85;2.63;;;;;;;;;;4933602;29;20039;-63
2021/10/09 04:57:11;;;;;;;5.18;2.95;;;;;;;;;;4933892;29;20110;-63
2021/10/09 04:59:37;;;;;;;4.80;2.60;;;;;;;;;;4933468;29;20104;-62
2021/10/09 05:02:03;;;;;;;4.85;2.78;;;;;;;;;;4934090;29;20108;-65
2021/10/09 05:04:29;;;;;;;7.90;2.78;;;;;;;;;;4936571;29;20028;-63
2021/10/09 05:06:55;;;;;;;5.68;2.90;;;;;;;;;;4936613;29;20032;-62
2021/10/09 05:09:21;;;;;;;7.10;3.40;;;;;;;;;;4936514;29;20042;-64
2021/10/09 05:11:47;;;;;;;5.40;2.95;;;;;;;;;;4936560;29;20035;-62
2021/10/09 05:14:13;;;;;;;9.65;4.00;;;;;;;;;;4936154;29;20106;-61
2021/10/09 05:16:39;;;;;;;6.95;3.35;;;;;;;;;;4936290;29;20066;-62
2021/10/09 05:19:05;;;;;;;7.05;3.47;;;;;;;;;;4936550;29;20062;-62
2021/10/09 05:21:32;;;;;;;6.47;3.67;;;;;;;;;;4937529;29;20480;-62
2021/10/09 05:23:58;;;;;;;6.35;3.35;;;;;;;;;;4937505;29;20095;-62
2021/10/09 05:26:24;;;;;;;7.35;3.50;;;;;;;;;;4936928;29;20059;-62
2021/10/09 05:28:51;;;;;;;5.88;3.35;;;;;;;;;;4937527;29;20495;-62
2021/10/09 05:31:28;;;;;;;5.47;3.22;;;;;;;;;;4937387;29;20020;-61
2021/10/09 05:33:54;;;;;;;5.85;3.53;;;;;;;;;;4937216;29;20019;-61
2021/10/09 05:36:22;;;;;;;6.88;3.20;;;;;;;;;;4937292;29;20396;-62
2021/10/09 05:38:48;;;;;;;4.68;3.20;;;;;;;;;;4936955;29;20067;-62
2021/10/09 05:41:15;;;;;;;7.93;3.60;;;;;;;;;;4937178;29;20054;-63
2021/10/09 05:43:41;;;;;;;6.53;3.30;;;;;;;;;;4937082;29;20028;-62
2021/10/09 05:46:07;;;;;;;5.85;3.10;;;;;;;;;;4936856;29;20035;-61
2021/10/09 05:48:37;;;;;;;8.02;3.83;;;;;;;;;;4936689;29;20032;-62
2021/10/09 07:00:45;;;;;;;13.57;5.55;;;;;;;;;;4935820;29;20448;-63
2021/10/09 07:03:11;;;;;;;12.40;5.32;;;;;;;;;;4935546;29;20030;-63
2021/10/09 07:05:41;;;;;;;19.13;6.30;;;;;;;;;;4935642;29;20024;-62
2021/10/09 07:08:11;;;;;;;11.35;5.22;;;;;;;;;;4935261;29;20043;-65
2021/10/09 07:10:39;;;;;;;13.25;5.47;;;;;;;;;;4935496;29;20024;-64
2021/10/09 07:13:05;;;;;;;9.75;5.38;;;;;;;;;;4934827;29;20038;-63
2021/10/09 07:15:32;;;;;;;9.10;5.40;;;;;;;;;;4934676;29;20030;-64
2021/10/09 07:17:58;;;;;;;9.80;5.93;;;;;;;;;;4934428;29;20034;-65
2021/10/09 07:20:24;;;;;;;8.82;5.10;;;;;;;;;;4933875;29;20031;-63
2021/10/09 07:22:50;;;;;;;8.48;5.28;;;;;;;;;;4933314;29;20407;-64
2021/10/09 07:25:17;;;;;;;10.23;4.28;;;;;;;;;;4932844;29;20028;-64
2021/10/09 07:27:43;;;;;;;6.93;4.07;;;;;;;;;;4933638;29;20036;-64
2021/10/09 07:30:09;;;;;;;14.13;5.32;;;;;;;;;;4933662;29;20039;-63
2021/10/09 07:32:35;;;;;;;7.88;4.53;;;;;;;;;;4933472;29;20059;-63
2021/10/09 07:35:01;;;;;;;10.05;4.90;;;;;;;;;;4933621;29;20542;-65
2021/10/09 07:37:28;;;;;;;9.32;4.78;;;;;;;;;;4933414;29;20079;-64
2021/10/09 07:39:54;;;;;;;11.32;5.78;;;;;;;;;;4933578;29;20070;-64
2021/10/09 07:42:20;;;;;;;9.90;4.97;;;;;;;;;;4934556;29;20039;-65
2021/10/09 07:44:49;;;;;;;7.85;4.10;;;;;;;;;;4934665;29;20591;-64
2021/10/09 07:47:15;;;;;;;7.82;4.15;;;;;;;;;;4934637;29;20023;-62
2021/10/09 07:49:41;;;;;;;8.07;4.28;;;;;;;;;;4934677;29;20038;-63
2021/10/09 07:52:07;;;;;;;9.30;4.72;;;;;;;;;;4934681;29;20069;-67
2021/10/09 07:54:33;;;;;;;8.05;4.00;;;;;;;;;;4934346;29;20043;-69
2021/10/09 07:56:59;;;;;;;8.65;3.90;;;;;;;;;;4934456;29;20055;-64
2021/10/09 07:59:25;;;;;;;6.28;3.80;;;;;;;;;;4934515;29;20038;-64
2021/10/09 08:01:52;;;;;;;9.77;4.15;;;;;;;;;;4934228;29;20126;-62
2021/10/09 08:04:18;;;;;;;8.68;4.38;;;;;;;;;;4933120;29;20507;-64
2021/10/09 08:06:44;;;;;;;12.10;4.57;;;;;;;;;;4932900;29;20036;-65
2021/10/09 08:09:11;;;;;;;8.52;4.97;;;;;;;;;;4933112;29;20365;-63
2021/10/09 08:11:38;;;;;;;8.38;4.93;;;;;;;;;;4933026;29;20024;-65
2021/10/09 08:14:04;;;;;;;8.05;4.35;;;;;;;;;;4933221;29;20020;-66
2021/10/09 08:16:31;;;;;;;7.30;4.18;;;;;;;;;;4932677;29;20404;-67
2021/10/09 08:18:59;;;;;;;11.50;4.57;;;;;;;;;;4932969;29;20031;-64
2021/10/09 08:21:26;;;;;;;10.85;4.20;;;;;;;;;;4932848;29;20046;-64
2021/10/09 08:40:06;;;;;;;13.00;5.15;;;;;;;;;;4915214;29;20095;-63
2021/10/09 08:42:33;;;;;;;10.07;4.93;;;;;;;;;;4915004;29;20122;-66
2021/10/09 08:44:59;;;;;;;10.15;3.97;;;;;;;;;;4915152;29;20071;-65
2021/10/09 08:47:25;;;;;;;12.68;5.85;;;;;;;;;;4914911;29;20040;-65
2021/10/09 08:49:51;;;;;;;9.18;5.10;;;;;;;;;;4914812;29;20029;-64
2021/10/09 08:52:22;;;;;;;9.65;4.88;;;;;;;;;;4914681;29;20024;-64
2021/10/09 08:54:48;;;;;;;9.65;4.65;;;;;;;;;;4914740;29;20032;-65
2021/10/09 08:57:18;;;;;;;9.25;4.18;;;;;;;;;;4914903;29;20496;-64
2021/10/09 08:59:59;;;;;;;10.88;4.95;;;;;;;;;;4914929;29;20473;-64
2021/10/09 09:02:29;;;;;;;7.00;4.32;;;;;;;;;;4914725;29;20028;-64
2021/10/09 09:35:44;;;;;;;13.98;5.63;;;;;;;;;;4914801;29;20036;-65
2021/10/09 09:40:36;;;;;;;9.85;5.78;;;;;;;;;;4914323;29;20484;-65
2021/10/09 09:43:03;;;;;;;9.80;4.60;;;;;;;;;;4914576;29;20168;-63
2021/10/09 09:45:29;;;;;;;8.05;3.90;;;;;;;;;;4914511;29;20106;-66
2021/10/09 09:47:57;;;;;;;13.00;5.78;;;;;;;;;;4915953;29;20115;-65
2021/10/09 09:50:24;;;;;;;11.98;5.88;;;;;;;;;;4917743;29;20544;-65
2021/10/09 09:52:50;;;;;;;11.43;5.55;;;;;;;;;;4917720;29;20040;-64
2021/10/09 09:55:17;;;;;;;9.88;4.93;;;;;;;;;;4917876;29;20036;-65
2021/10/09 09:57:43;;;;;;;9.23;4.72;;;;;;;;;;4917740;29;20039;-63
2021/10/09 10:00:13;;;;;;;10.63;5.45;;;;;;;;;;4918002;29;20384;-63
2021/10/09 10:02:43;;;;;;;9.50;5.20;;;;;;;;;;4917762;29;20124;-62
2021/10/09 10:05:09;;;;;;;10.20;5.40;;;;;;;;;;4917744;29;20021;-62
2021/10/09 10:07:35;;;;;;;10.13;5.10;;;;;;;;;;4917653;29;20543;-63
2021/10/09 10:10:02;;;;;;;9.90;5.32;;;;;;;;;;4917542;29;20032;-64
2021/10/09 10:12:29;;;;;;;12.98;5.72;;;;;;;;;;4917773;29;20032;-64
2021/10/09 10:14:56;;;;;;;9.27;5.10;;;;;;;;;;4917651;29;20436;-65
2021/10/09 10:17:40;;;;;;;10.95;5.90;;;;;;;;;;4917290;29;20107;-66
2021/10/09 10:20:07;;;;;;;11.07;6.18;;;;;;;;;;4917073;29;20024;-65
2021/10/09 10:22:33;;;;;;;10.75;5.13;;;;;;;;;;4917216;29;20044;-65
2021/10/09 10:24:59;;;;;;;10.00;5.75;;;;;;;;;;4916865;29;20036;-65
2021/10/09 10:27:34;;;;;;;8.43;4.60;;;;;;;;;;4916977;29;20056;-66
2021/10/09 10:30:16;;;;;;;10.02;5.82;;;;;;;;;;4916714;29;20107;-64
2021/10/09 10:32:54;;;;;;;11.00;4.90;;;;;;;;;;4917035;29;20036;-64
2021/10/09 10:35:32;;;;;;;11.40;4.97;;;;;;;;;;4917213;29;20020;-64
2021/10/09 10:38:07;;;;;;;9.40;4.35;;;;;;;;;;4918393;29;20056;-64
2021/10/09 10:40:50;;;;;;;11.02;5.15;;;;;;;;;;4934846;29;20035;-62
2021/10/09 10:45:58;;;;;;;11.57;4.95;;;;;;;;;;4933891;29;20040;-73
2021/10/09 10:48:42;;;;;;;9.18;4.63;;;;;;;;;;4934386;29;20034;-73
2021/10/09 10:51:15;;;;;;;10.35;5.18;;;;;;;;;;4932126;29;20028;-71
2021/10/09 10:54:06;;;;;;;9.25;5.15;;;;;;;;;;4934327;29;20023;-70
2021/10/09 10:56:32;;;;;;;11.77;6.05;;;;;;;;;;4929168;29;20055;-76
2021/10/09 10:59:16;;;;;;;13.23;5.95;;;;;;;;;;4933108;29;20428;-66
2021/10/09 11:01:43;;;;;;;13.45;6.53;;;;;;;;;;4933198;29;20032;-69
2021/10/09 11:04:09;;;;;;;11.15;6.07;;;;;;;;;;4934186;29;20035;-67
2021/10/09 11:06:35;;;;;;;13.05;5.30;;;;;;;;;;4933520;29;20043;-62
2021/10/09 11:09:01;;;;;;;13.00;6.28;;;;;;;;;;4935469;29;20028;-65
2021/10/09 11:11:34;;;;;;;12.73;6.53;;;;;;;;;;4934963;29;20123;-66
2021/10/09 11:16:32;;;;;;;16.10;8.48;;;;;;;;;;4951639;29;20105;-63
2021/10/09 11:18:58;;;;;;;12.50;6.18;;;;;;;;;;4952779;29;20065;-64
2021/10/09 11:21:24;;;;;;;22.65;10.45;;;;;;;;;;4952503;29;20053;-69
2021/10/09 11:23:51;;;;;;;26.17;13.38;;;;;;;;;;4953523;29;20031;-73
2021/10/09 11:26:18;;;;;;;16.80;8.70;;;;;;;;;;4953815;29;20015;-68
2021/10/09 11:28:44;;;;;;;29.55;13.05;;;;;;;;;;4936811;29;20054;-67
2021/10/09 11:31:21;;;;;;;16.15;8.40;;;;;;;;;;4936047;29;20039;-69
2021/10/09 11:33:47;;;;;;;13.48;7.10;;;;;;;;;;4954296;29;20085;-69
2021/10/09 11:36:13;;;;;;;23.08;11.52;;;;;;;;;;4953917;29;20035;-69
2021/10/09 11:38:39;;;;;;;23.10;9.82;;;;;;;;;;4954031;29;20023;-67
2021/10/09 11:41:13;;;;;;;11.80;6.35;;;;;;;;;;4953623;29;20078;-69
2021/10/09 11:55:22;;;;;;;13.43;7.93;;;;;;;;;;4853281;29;20094;-64
2021/10/09 11:57:49;;;;;;;14.80;7.03;;;;;;;;;;4850028;29;20385;-66
2021/10/09 12:00:31;;;;;;;11.75;6.00;;;;;;;;;;4846507;29;20049;-66
2021/10/09 12:02:58;;;;;;;14.05;6.85;;;;;;;;;;4844391;29;20572;-62
2021/10/09 12:05:34;;;;;;;13.50;6.47;;;;;;;;;;4847929;29;20065;-63
2021/10/09 12:08:17;;;;;;;12.73;4.90;;;;;;;;;;4850157;29;20037;-65
2021/10/09 12:11:02;;;;;;;8.68;4.00;;;;;;;;;;4849893;29;20417;-64
2021/10/09 12:13:28;;;;;;;9.90;4.82;;;;;;;;;;4854159;29;20037;-67
2021/10/09 12:16:07;;;;;;;11.45;4.90;;;;;;;;;;4850325;29;20203;-65
2021/10/09 12:18:46;;;;;;;10.10;4.35;;;;;;;;;;4847832;29;20041;-63
2021/10/09 12:21:12;;;;;;;8.50;4.30;;;;;;;;;;4855562;29;20085;-63
2021/10/09 12:23:38;;;;;;;12.20;4.97;;;;;;;;;;4952067;29;20106;-63
2021/10/09 12:26:11;;;;;;;12.68;5.63;;;;;;;;;;4952131;29;20027;-63
2021/10/09 12:28:57;;;;;;;12.23;5.75;;;;;;;;;;4948385;29;20035;-64
2021/10/09 12:31:26;;;;;;;11.50;6.75;;;;;;;;;;4952153;29;20701;-65
2021/10/09 12:33:52;;;;;;;10.88;5.53;;;;;;;;;;4952254;29;20027;-64
2021/10/09 12:36:32;;;;;;;13.05;6.40;;;;;;;;;;4952364;29;20034;-63
2021/10/09 12:39:19;;;;;;;11.63;6.32;;;;;;;;;;4952490;29;20024;-60
2021/10/09 12:41:45;;;;;;;11.77;5.93;;;;;;;;;;4947448;29;20046;-60
2021/10/09 12:44:12;;;;;;;11.60;5.50;;;;;;;;;;4952210;29;20534;-59
2021/10/09 12:46:38;;;;;;;9.50;5.05;;;;;;;;;;4952728;29;20059;-59
2021/10/09 12:49:04;;;;;;;8.95;5.38;;;;;;;;;;4952353;29;20447;-60
2021/10/09 12:51:30;;;;;;;10.02;5.50;;;;;;;;;;4952565;29;20038;-60
2021/10/09 12:54:03;;;;;;;12.25;7.55;;;;;;;;;;4951448;29;20475;-70
2021/10/09 12:56:29;;;;;;;15.02;8.73;;;;;;;;;;4951216;29;20451;-61
2021/10/09 12:58:55;;;;;;;11.05;6.15;;;;;;;;;;4952690;29;20031;-62
2021/10/09 13:01:21;;;;;;;13.85;7.13;;;;;;;;;;4952544;29;20055;-71
2021/10/09 13:03:47;;;;;;;10.30;6.25;;;;;;;;;;4951409;29;20023;-62
2021/10/09 13:06:13;;;;;;;13.75;6.35;;;;;;;;;;4952527;29;20466;-67
2021/10/09 13:08:39;;;;;;;11.38;5.65;;;;;;;;;;4952596;29;20058;-67
2021/10/09 13:11:05;;;;;;;13.05;6.55;;;;;;;;;;4952664;29;20035;-62
2021/10/09 13:13:31;;;;;;;15.27;7.40;;;;;;;;;;4952766;29;20023;-60
2021/10/09 13:15:57;;;;;;;15.13;9.13;;;;;;;;;;4952112;29;20082;-64
2021/10/09 13:18:23;;;;;;;8.15;5.20;;;;;;;;;;4952816;29;20039;-64
2021/10/09 13:20:49;;;;;;;12.07;7.22;;;;;;;;;;4952183;29;20070;-67
2021/10/09 13:23:15;;;;;;;10.80;7.22;;;;;;;;;;4953916;28;20097;-61
2021/10/09 13:25:41;;;;;;;12.48;6.68;;;;;;;;;;4956262;29;20111;-61
2021/10/09 13:28:07;;;;;;;13.43;6.10;;;;;;;;;;4955876;29;20419;-63
2021/10/09 13:30:34;;;;;;;12.32;6.95;;;;;;;;;;4956173;29;20035;-65
2021/10/09 13:33:00;;;;;;;12.93;6.40;;;;;;;;;;4956350;29;20023;-68
2021/10/09 13:35:26;;;;;;;12.10;6.25;;;;;;;;;;4956229;29;20027;-67
2021/10/09 13:37:54;;;;;;;14.70;8.77;;;;;;;;;;4956050;29;20019;-71
2021/10/09 13:40:20;;;;;;;15.77;8.10;;;;;;;;;;4955770;29;20066;-67
2021/10/09 13:42:46;;;;;;;21.00;11.05;;;;;;;;;;4956111;29;20035;-60
2021/10/09 13:45:12;;;;;;;12.65;7.70;;;;;;;;;;4956130;29;20019;-62
2021/10/09 13:47:40;;;;;;;13.13;7.22;;;;;;;;;;4956031;29;20079;-67
2021/10/09 13:50:06;;;;;;;15.38;8.80;;;;;;;;;;4955538;29;20019;-65
2021/10/09 13:52:32;;;;;;;7.03;4.88;;;;;;;;;;4955551;29;20053;-64
2021/10/09 13:54:58;;;;;;;9.80;5.22;;;;;;;;;;4955692;29;20027;-61
2021/10/09 13:57:24;;;;;;;10.43;5.55;;;;;;;;;;4955472;29;20154;-61
2021/10/09 13:59:50;;;;;;;10.07;6.40;;;;;;;;;;4955373;29;20031;-62
2021/10/09 14:02:17;;;;;;;12.75;7.07;;;;;;;;;;4955365;29;20023;-64
2021/10/09 14:04:43;;;;;;;9.77;6.30;;;;;;;;;;4955731;29;20116;-60
2021/10/09 14:07:09;;;;;;;11.23;4.95;;;;;;;;;;4955449;29;20027;-62
2021/10/09 14:09:35;;;;;;;6.80;3.92;;;;;;;;;;4954936;29;20571;-61
2021/10/09 14:12:01;;;;;;;9.68;5.30;;;;;;;;;;4953981;29;20035;-62
2021/10/09 14:14:28;;;;;;;10.68;6.13;;;;;;;;;;4954200;29;20032;-60
2021/10/09 14:16:57;;;;;;;9.85;5.28;;;;;;;;;;4955212;29;20499;-67
2021/10/09 14:19:24;;;;;;;10.15;6.13;;;;;;;;;;4954658;29;20034;-63
2021/10/09 14:21:50;;;;;;;12.35;7.13;;;;;;;;;;4954757;29;20043;-62
2021/10/09 14:24:18;;;;;;;16.60;8.65;;;;;;;;;;4955131;29;20051;-62
2021/10/09 14:26:44;;;;;;;14.13;8.18;;;;;;;;;;4954819;29;20047;-64
2021/10/09 14:29:10;;;;;;;11.18;6.95;;;;;;;;;;4955012;29;20110;-60
2021/10/09 14:31:36;;;;;;;13.30;7.75;;;;;;;;;;4954963;29;20030;-62
2021/10/09 14:34:03;;;;;;;13.63;8.07;;;;;;;;;;4954497;28;20031;-61
2021/10/09 14:36:29;;;;;;;20.65;10.38;;;;;;;;;;4953173;29;20074;-60
2021/10/09 14:38:55;;;;;;;40.08;17.38;;;;;;;;;;4953720;29;20491;-62
2021/10/09 14:41:21;;;;;;;59.05;24.77;;;;;;;;;;4954575;29;20499;-62
2021/10/09 14:43:47;;;;;;;23.67;10.38;;;;;;;;;;4954426;29;20027;-64
2021/10/09 14:48:54;;;;;;;19.73;9.48;;;;;;;;;;4954063;29;20039;-66
2021/10/09 15:18:18;;;;;;;18.58;9.95;;;;;;;;;;4954129;29;20075;-63
2021/10/09 15:20:33;;;;;;;9.82;5.70;;;;;;;;;;4949797;29;20114;-62
2021/10/09 15:23:01;;;;;;;15.02;9.73;;;;;;;;;;4954449;29;20039;-68
2021/10/09 15:25:28;;;;;;;16.67;8.95;;;;;;;;;;4953652;29;20545;-61
2021/10/09 15:27:54;;;;;;;25.17;12.55;;;;;;;;;;4953842;29;20039;-63
2021/10/09 15:30:20;;;;;;;14.93;8.02;;;;;;;;;;4953892;29;20054;-60
2021/10/09 15:32:46;;;;;;;18.30;10.35;;;;;;;;;;4953986;29;20062;-66
2021/10/09 15:35:12;;;;;;;16.15;9.25;;;;;;;;;;4953770;29;20482;-62
2021/10/09 15:37:38;;;;;;;14.15;7.72;;;;;;;;;;4953753;29;20375;-61
2021/10/09 15:40:05;;;;;;;14.00;7.32;;;;;;;;;;4953619;29;20086;-67
2021/10/09 15:42:31;;;;;;;12.23;7.88;;;;;;;;;;4953715;29;20035;-61
2021/10/09 15:44:57;;;;;;;12.13;7.93;;;;;;;;;;4953364;28;20109;-68
2021/10/09 15:47:24;;;;;;;13.38;7.80;;;;;;;;;;4953662;29;20035;-66
2021/10/09 15:49:50;;;;;;;13.95;8.25;;;;;;;;;;4953844;29;20051;-66
2021/10/09 15:52:16;;;;;;;11.57;7.80;;;;;;;;;;4953442;29;20027;-65
2021/10/09 15:54:42;;;;;;;12.07;8.10;;;;;;;;;;4953430;29;20031;-66
2021/10/09 15:57:09;;;;;;;13.88;8.77;;;;;;;;;;4953314;29;20062;-62
2021/10/09 15:59:35;;;;;;;15.75;9.15;;;;;;;;;;4953140;29;20050;-64
2021/10/09 16:02:01;;;;;;;13.90;8.73;;;;;;;;;;4952948;29;20042;-61
2021/10/09 16:04:27;;;;;;;17.20;10.23;;;;;;;;;;4953381;29;20113;-63
2021/10/09 16:06:55;;;;;;;20.00;13.02;;;;;;;;;;4952996;29;20125;-62
2021/10/09 16:09:21;;;;;;;18.20;9.80;;;;;;;;;;4952810;28;20031;-64
2021/10/09 16:11:47;;;;;;;10.35;6.40;;;;;;;;;;4952948;29;20030;-63
2021/10/09 16:14:14;;;;;;;14.30;8.35;;;;;;;;;;4952729;29;20031;-62
2021/10/09 16:16:40;;;;;;;18.17;8.57;;;;;;;;;;4953292;29;20035;-64
2021/10/09 16:19:06;;;;;;;13.68;7.35;;;;;;;;;;4952576;29;20070;-67
2021/10/09 16:21:32;;;;;;;11.63;7.18;;;;;;;;;;4953426;29;20082;-69
2021/10/09 16:23:58;;;;;;;14.10;7.70;;;;;;;;;;4952757;29;20027;-67
2021/10/09 16:26:24;;;;;;;16.23;8.30;;;;;;;;;;4952843;29;20038;-65
2021/10/09 16:28:51;;;;;;;12.40;7.20;;;;;;;;;;4953002;29;20028;-62
2021/10/09 16:31:17;;;;;;;14.18;7.95;;;;;;;;;;4952260;29;20506;-62
2021/10/09 16:33:43;;;;;;;11.38;6.43;;;;;;;;;;4951376;29;20043;-63
2021/10/09 16:36:09;;;;;;;15.15;6.63;;;;;;;;;;4952466;29;20031;-65
2021/10/09 16:38:35;;;;;;;9.40;5.78;;;;;;;;;;4949726;29;20114;-62
2021/10/09 16:41:02;;;;;;;10.30;5.38;;;;;;;;;;4944023;29;20048;-61
2021/10/09 16:43:28;;;;;;;12.10;6.07;;;;;;;;;;4933558;29;20058;-67
2021/10/09 16:45:54;;;;;;;13.63;7.47;;;;;;;;;;4933372;29;20027;-65
2021/10/09 16:48:20;;;;;;;10.52;5.70;;;;;;;;;;4916426;29;20455;-66
2021/10/09 16:50:46;;;;;;;11.80;6.47;;;;;;;;;;4932646;29;20055;-68
2021/10/09 16:53:12;;;;;;;11.57;6.85;;;;;;;;;;4932242;29;20039;-61
2021/10/09 16:55:38;;;;;;;9.85;6.15;;;;;;;;;;4950000;29;20032;-69
2021/10/09 16:58:04;;;;;;;15.05;7.45;;;;;;;;;;4938545;29;20039;-61
2021/10/09 17:00:30;;;;;;;13.48;6.90;;;;;;;;;;4956333;29;20066;-63
2021/10/09 17:02:57;;;;;;;12.43;7.50;;;;;;;;;;4956393;29;20712;-64
2021/10/09 17:05:23;;;;;;;13.45;7.50;;;;;;;;;;4955022;29;20023;-65
2021/10/09 17:07:49;;;;;;;15.68;8.10;;;;;;;;;;4955573;29;20042;-66
2021/10/09 17:10:15;;;;;;;15.70;7.75;;;;;;;;;;4955519;29;20031;-64
2021/10/09 17:12:41;;;;;;;18.63;7.70;;;;;;;;;;4955834;29;20058;-61
2021/10/09 17:15:07;;;;;;;21.60;9.10;;;;;;;;;;4955311;29;20058;-64
2021/10/09 17:17:33;;;;;;;20.92;9.60;;;;;;;;;;4956161;29;20074;-61
2021/10/09 17:19:59;;;;;;;18.70;8.75;;;;;;;;;;4955522;29;20023;-65
2021/10/09 17:22:25;;;;;;;13.02;7.40;;;;;;;;;;4954339;29;20031;-60
2021/10/09 17:24:51;;;;;;;14.48;7.50;;;;;;;;;;4955629;29;20071;-61
2021/10/09 17:27:17;;;;;;;11.00;5.80;;;;;;;;;;4955708;29;20045;-60
2021/10/09 17:29:43;;;;;;;12.57;6.90;;;;;;;;;;4956148;29;20110;-62
2021/10/09 17:32:09;;;;;;;11.45;7.10;;;;;;;;;;4955778;29;20035;-62
2021/10/09 17:34:35;;;;;;;11.05;6.63;;;;;;;;;;4955924;29;20034;-62
2021/10/09 17:37:01;;;;;;;12.70;7.15;;;;;;;;;;4955745;29;20032;-60
2021/10/09 17:39:27;;;;;;;12.98;7.78;;;;;;;;;;4955405;29;20031;-63
2021/10/09 17:41:53;;;;;;;14.00;7.90;;;;;;;;;;4955692;29;20040;-61